Astrea — 3FOI9 — position and weather

sailwx.info

Track history (hours):
 
Tides and Currents Weather Stations Pressure Air Temp Water Temp Dewpoint Dewpoint Depression Visibility Wind Speed Wind Dir Waves Ship Positions

Astrea

Last reported at 2017-Nov-17 22:23 UTC. Time now 2017-Nov-23 15:19 UTC.
Position N 36°38' E 014°40'.

Length 105 m; draft 6.8 m.

Type: Cargo ship. MMSI: 357621000.

Date/timePositionNaut miles runAvg speedWind from/ knotsBaromVisibWave heightAir tempDewpointWater temp
2017-Nov-17 22:23N 36°38' E 014°40'512.7
2017-Nov-17 22:00N 36°39' E 014°34'612.8
2017-Nov-17 21:30N 36°41' E 014°26'612.3
2017-Nov-17 21:00N 36°43' E 014°19'612.4
2017-Nov-17 20:30N 36°46' E 014°12'612.5
2017-Nov-17 20:00N 36°48' E 014°05'612.5
2017-Nov-17 19:30N 36°50' E 013°57'612.5
2017-Nov-17 19:00N 36°52' E 013°50'612.4
2017-Nov-17 18:30N 36°54' E 013°43'612.3
2017-Nov-17 17:59N 36°57' E 013°35'  
2017-Nov-14 12:01N 35°60' W 005°14'015.1
2017-Nov-14 12:00N 35°60' W 005°14'714.6
2017-Nov-14 11:30N 35°58' W 005°23'  
Track history (hours):
 
Tides and Currents Weather Stations Pressure Air Temp Water Temp Dewpoint Dewpoint Depression Visibility Wind Speed Wind Dir Waves Ship Positions

Astrea

Last reported at 2017-Nov-17 22:23 UTC. Time now 2017-Nov-23 15:19 UTC.
Position N 36°38' E 014°40'.

Length 105 m; draft 6.8 m.

Type: Cargo ship. MMSI: 357621000.

Date/timePositionNaut miles runAvg speedWind from/ knotsBaromVisibWave heightAir tempDewpointWater temp
2017-Nov-17 22:23N 36°38' E 014°40'512.7
2017-Nov-17 22:00N 36°39' E 014°34'612.8
2017-Nov-17 21:30N 36°41' E 014°26'612.3
2017-Nov-17 21:00N 36°43' E 014°19'612.4
2017-Nov-17 20:30N 36°46' E 014°12'612.5
2017-Nov-17 20:00N 36°48' E 014°05'612.5
2017-Nov-17 19:30N 36°50' E 013°57'612.5
2017-Nov-17 19:00N 36°52' E 013°50'612.4
2017-Nov-17 18:30N 36°54' E 013°43'612.3
2017-Nov-17 17:59N 36°57' E 013°35'  
2017-Nov-14 12:01N 35°60' W 005°14'015.1
2017-Nov-14 12:00N 35°60' W 005°14'714.6
2017-Nov-14 11:30N 35°58' W 005°23'  

Dump ship's entire track history